J B M Hertzog International Airport

Airport
ICAO code: 
FABL
IATA Code: 
BFN
Summary
ICAO Region: 
AFI
Territory: 
Location: 
, Free State
Serving: 
Bloemfontein
Elevation: 
4458 ft
Coordinates: 
Aerial View: 
29° 5' 33.799" S, 26° 18' 8.798" E
Metar
Observation
FABL 040100Z AUTO 09003KT 050V150 9999 -TSRA ///////// 17/15 Q1017
Station
Bloemfontein, Bloemfontein Airport
Date/Time
2021-12-04 01:00:00
Wind direction
90°
Wind speed
03 kts
Lowest cloud amount
n/a
Temperature
17°C
Dew point
15°C
Humidity
88%
QNH
1017 hPa
Weather condition
light thunderstorm rain

Runways

Designator Length Width Surface Rops
12/30 2195 46 ASP Yes/Yes
2/20 2559 46 ASP Yes/Yes
Airport map: 
Aerial View: 

SKYbrary Partners:

Safety knowledge contributed by: